Station History

Weather Underground - logo

Station Historical Data
Daily Summary for July 9, 2017 Units:  English    Metric   Both
« Previous Day
Next Day »
Daily Weekly Monthly Yearly Custom
  High: Low: Average:
Temperature: 103.8 °F 74.8 °F 87.5 °F
Dew Point: 68.4 °F 52.5 °F 62 °F
Humidity: 73 % 19 % 47 %
Wind Speed: 5.8 mph 0.0 mph 1.2 mph
Wind Gust: 5.8 mph - -
Wind:- - South
Pressure: 29.83 in 29.72 in -
Precipitation: 0.00 in    
Historical Graphs
 
 
Tabular Data for July 9, 2017
Time Temperature Dew Point Pressure Wind Wind Speed Wind Gust Humidity Rainfall Rate (Hourly)
00:01 80.0 °F 67.2 °F 29.78 in Calm     65 % 0.00 in
00:06 79.8 °F 66.5 °F 29.78 in Calm     64 % 0.00 in
00:11 79.7 °F 66.4 °F 29.79 in Calm     64 % 0.00 in
00:16 79.6 °F 65.9 °F 29.79 in Calm     63 % 0.00 in
00:21 79.4 °F 65.7 °F 29.79 in Calm     63 % 0.00 in
00:26 79.1 °F 65.4 °F 29.79 in Calm     63 % 0.00 in
00:32 79.0 °F 65.3 °F 29.79 in Calm     63 % 0.00 in
00:37 78.9 °F 66.1 °F 29.79 in Calm     65 % 0.00 in
00:42 78.5 °F 66.2 °F 29.79 in Calm     66 % 0.00 in
00:47 78.1 °F 66.2 °F 29.78 in Calm     67 % 0.00 in
00:52 77.8 °F 66.8 °F 29.78 in Calm     69 % 0.00 in
00:57 77.5 °F 66.5 °F 29.78 in Calm     69 % 0.00 in
01:02 77.3 °F 66.7 °F 29.78 in Calm     70 % 0.00 in
01:07 77.2 °F 67.1 °F 29.78 in Calm     71 % 0.00 in
01:12 77.2 °F 67.1 °F 29.78 in Calm     71 % 0.00 in
01:17 77.4 °F 66.8 °F 29.78 in Calm     70 % 0.00 in
01:22 77.4 °F 66.4 °F 29.78 in ESE 1.0 mph 1.0 mph 69 % 0.00 in
01:27 77.4 °F 66.4 °F 29.78 in ESE 1.2 mph 1.2 mph 69 % 0.00 in
01:32 77.4 °F 66.8 °F 29.79 in Calm     70 % 0.00 in
01:37 77.3 °F 66.7 °F 29.79 in Calm     70 % 0.00 in
01:42 76.8 °F 66.3 °F 29.79 in SE 1.2 mph 1.2 mph 70 % 0.00 in
01:47 76.3 °F 65.8 °F 29.79 in SE 2.3 mph   70 % 0.00 in
01:52 76.1 °F 65.6 °F 29.79 in Calm     70 % 0.00 in
01:57 76.0 °F 65.9 °F 29.79 in Calm     71 % 0.00 in
02:02 76.0 °F 65.9 °F 29.79 in Calm     71 % 0.00 in
02:04 76.0 °F 65.9 °F 29.79 in Calm     71 % 0.00 in
02:09 76.1 °F 65.6 °F 29.79 in Calm     70 % 0.00 in
02:14 76.2 °F 65.7 °F 29.79 in Calm     70 % 0.00 in
02:19 76.2 °F 66.1 °F 29.79 in Calm     71 % 0.00 in
02:24 76.2 °F 66.1 °F 29.79 in Calm     71 % 0.00 in
02:29 76.2 °F 65.7 °F 29.79 in Calm     70 % 0.00 in
02:34 76.3 °F 66.2 °F 29.79 in Calm     71 % 0.00 in
02:39 76.3 °F 66.2 °F 29.79 in Calm     71 % 0.00 in
02:44 76.4 °F 67.1 °F 29.79 in Calm     73 % 0.00 in
02:49 76.3 °F 66.2 °F 29.79 in Calm     71 % 0.00 in
02:54 76.5 °F 66.0 °F 29.79 in Calm     70 % 0.00 in
02:59 76.7 °F 65.8 °F 29.79 in SE 1.2 mph 1.2 mph 69 % 0.00 in
03:04 76.6 °F 66.1 °F 29.79 in ESE 2.3 mph 2.3 mph 70 % 0.00 in
03:09 76.2 °F 64.9 °F 29.79 in East 1.2 mph   68 % 0.00 in
03:14 76.1 °F 64.3 °F 29.79 in Calm     67 % 0.00 in
03:19 76.1 °F 63.9 °F 29.79 in Calm     66 % 0.00 in
03:24 76.1 °F 64.3 °F 29.79 in Calm     67 % 0.00 in
03:29 76.1 °F 64.3 °F 29.79 in Calm     67 % 0.00 in
03:34 76.1 °F 64.3 °F 29.79 in Calm     67 % 0.00 in
03:39 76.1 °F 64.3 °F 29.79 in Calm     67 % 0.00 in
03:44 76.0 °F 64.2 °F 29.79 in Calm     67 % 0.00 in
03:49 76.2 °F 63.1 °F 29.79 in Calm     64 % 0.00 in
03:54 76.4 °F 63.3 °F 29.79 in Calm     64 % 0.00 in
03:59 76.5 °F 63.4 °F 29.79 in East 1.2 mph   64 % 0.00 in
04:04 76.6 °F 63.5 °F 29.79 in Calm     64 % 0.00 in
04:09 76.6 °F 63.5 °F 29.79 in Calm     64 % 0.00 in
04:14 76.5 °F 65.1 °F 29.79 in Calm     68 % 0.00 in
04:19 76.4 °F 62.9 °F 29.79 in Calm     63 % 0.00 in
04:24 76.5 °F 64.3 °F 29.79 in Calm     66 % 0.00 in
04:30 76.5 °F 63.9 °F 29.79 in Calm     65 % 0.00 in
04:35 76.4 °F 63.8 °F 29.79 in Calm     65 % 0.00 in
04:40 76.2 °F 63.6 °F 29.80 in Calm     65 % 0.00 in
04:45 76.0 °F 63.8 °F 29.79 in East 1.0 mph 1.0 mph 66 % 0.00 in
04:50 75.7 °F 64.0 °F 29.79 in Calm     67 % 0.00 in
04:55 75.3 °F 64.0 °F 29.80 in Calm     68 % 0.00 in
05:00 75.0 °F 63.7 °F 29.79 in Calm     68 % 0.00 in
05:05 74.9 °F 63.6 °F 29.80 in East 2.3 mph 2.3 mph 68 % 0.00 in
05:10 74.9 °F 64.0 °F 29.80 in Calm     69 % 0.00 in
05:15 74.8 °F 63.9 °F 29.80 in Calm     69 % 0.00 in
05:20 74.8 °F 63.9 °F 29.80 in East 1.2 mph   69 % 0.00 in
05:25 74.8 °F 63.9 °F 29.80 in Calm     69 % 0.00 in
05:30 74.9 °F 64.5 °F 29.80 in East 1.2 mph   70 % 0.00 in
05:35 75.0 °F 64.1 °F 29.80 in Calm     69 % 0.00 in
05:40 75.0 °F 64.1 °F 29.80 in Calm     69 % 0.00 in
05:45 75.1 °F 64.6 °F 29.81 in Calm     70 % 0.00 in
05:47 75.0 °F 64.5 °F 29.81 in Calm     70 % 0.00 in
05:52 75.0 °F 65.0 °F 29.81 in Calm     71 % 0.00 in
05:57 74.9 °F 64.5 °F 29.81 in East 1.2 mph   70 % 0.00 in
06:03 74.9 °F 64.5 °F 29.81 in Calm     70 % 0.00 in
06:08 75.1 °F 64.2 °F 29.81 in Calm     69 % 0.00 in
06:13 75.2 °F 64.3 °F 29.81 in Calm     69 % 0.00 in
06:18 75.3 °F 64.0 °F 29.81 in Calm     68 % 0.00 in
06:23 75.4 °F 64.1 °F 29.81 in Calm     68 % 0.00 in
06:28 75.4 °F 64.1 °F 29.81 in Calm     68 % 0.00 in
06:33 75.4 °F 64.5 °F 29.81 in Calm     69 % 0.00 in
06:34 75.4 °F 64.1 °F 29.81 in Calm     68 % 0.00 in
06:39 75.5 °F 65.0 °F 29.81 in Calm     70 % 0.00 in
06:44 75.4 °F 64.1 °F 29.81 in Calm     68 % 0.00 in
06:49 75.5 °F 65.0 °F 29.81 in Calm     70 % 0.00 in
06:54 75.5 °F 64.6 °F 29.81 in Calm     69 % 0.00 in
06:59 75.7 °F 64.8 °F 29.81 in Calm     69 % 0.00 in
07:04 75.9 °F 65.4 °F 29.81 in Calm     70 % 0.00 in
07:09 76.2 °F 65.3 °F 29.82 in East 1.2 mph   69 % 0.00 in
07:14 76.7 °F 64.5 °F 29.82 in Calm     66 % 0.00 in
07:19 77.5 °F 63.9 °F 29.82 in East 1.2 mph   63 % 0.00 in
07:24 78.1 °F 64.0 °F 29.82 in SE 1.2 mph 1.2 mph 62 % 0.00 in
07:29 78.7 °F 64.6 °F 29.82 in SE 2.3 mph 2.3 mph 62 % 0.00 in
07:34 79.3 °F 63.7 °F 29.82 in South 1.2 mph   59 % 0.00 in
07:39 79.9 °F 62.8 °F 29.82 in SE 1.2 mph 1.2 mph 56 % 0.00 in
07:44 80.7 °F 63.5 °F 29.83 in ESE 2.3 mph 2.3 mph 56 % 0.00 in
07:49 80.9 °F 62.7 °F 29.83 in SE 2.3 mph 2.3 mph 54 % 0.00 in
07:54 81.0 °F 60.6 °F 29.82 in ESE 3.5 mph 3.5 mph 50 % 0.00 in
07:59 81.2 °F 60.2 °F 29.83 in SSE 3.5 mph 3.5 mph 49 % 0.00 in
08:04 81.5 °F 59.9 °F 29.83 in South 3.5 mph 3.5 mph 48 % 0.00 in
08:10 81.8 °F 59.6 °F 29.83 in East 1.2 mph   47 % 0.00 in
08:15 82.5 °F 60.8 °F 29.83 in East 3.0 mph 3.0 mph 48 % 0.00 in
08:19 82.7 °F 59.8 °F 29.83 in ESE 3.5 mph 3.5 mph 46 % 0.00 in
08:24 83.0 °F 59.5 °F 29.83 in East 3.5 mph 3.5 mph 45 % 0.00 in
08:30 83.2 °F 59.6 °F 29.83 in SE 1.2 mph   45 % 0.00 in
08:35 83.3 °F 58.5 °F 29.83 in SE 3.0 mph 3.0 mph 43 % 0.00 in
08:39 83.6 °F 58.1 °F 29.83 in SSE 4.6 mph 4.6 mph 42 % 0.00 in
08:44 83.9 °F 59.0 °F 29.83 in South 3.5 mph 3.5 mph 43 % 0.00 in
08:49 84.4 °F 58.8 °F 29.83 in East 3.5 mph 3.5 mph 42 % 0.00 in
08:54 84.7 °F 58.4 °F 29.83 in SE 3.5 mph 3.5 mph 41 % 0.00 in
09:00 84.9 °F 59.9 °F 29.83 in SSE 3.5 mph 3.5 mph 43 % 0.00 in
09:05 85.3 °F 60.9 °F 29.83 in SSE 2.3 mph   44 % 0.00 in
09:10 86.1 °F 60.3 °F 29.83 in SSE 2.3 mph 2.3 mph 42 % 0.00 in
09:15 86.4 °F 60.6 °F 29.83 in SSW 1.2 mph 1.2 mph 42 % 0.00 in
09:20 86.8 °F 58.9 °F 29.83 in SSE 3.5 mph 3.5 mph 39 % 0.00 in
09:25 86.9 °F 59.0 °F 29.83 in South 1.2 mph   39 % 0.00 in
09:30 87.5 °F 59.5 °F 29.83 in SE 1.2 mph 1.2 mph 39 % 0.00 in
09:35 87.2 °F 59.2 °F 29.83 in SSE 3.5 mph 3.5 mph 39 % 0.00 in
09:40 86.8 °F 58.9 °F 29.83 in ESE 3.5 mph 3.5 mph 39 % 0.00 in
09:45 86.8 °F 58.9 °F 29.83 in SSE 2.3 mph 2.3 mph 39 % 0.00 in
09:50 87.1 °F 59.1 °F 29.83 in SSE 2.3 mph 2.3 mph 39 % 0.00 in
09:55 87.6 °F 58.9 °F 29.83 in ESE 2.3 mph 2.3 mph 38 % 0.00 in
10:00 87.5 °F 60.2 °F 29.83 in Calm     40 % 0.00 in
10:05 87.4 °F 60.8 °F 29.83 in South 2.3 mph 2.3 mph 41 % 0.00 in
10:10 87.4 °F 57.2 °F 29.83 in SSE 3.5 mph 3.5 mph 36 % 0.00 in
10:15 87.4 °F 57.9 °F 29.83 in SE 2.3 mph 2.3 mph 37 % 0.00 in
10:20 88.0 °F 57.7 °F 29.83 in SSE 4.6 mph 4.6 mph 36 % 0.00 in
10:25 89.2 °F 56.3 °F 29.83 in ESE 5.8 mph 5.8 mph 33 % 0.00 in
10:30 90.2 °F 55.5 °F 29.83 in ENE 5.8 mph 5.8 mph 31 % 0.00 in
10:35 90.7 °F 58.5 °F 29.83 in South 3.5 mph 3.5 mph 34 % 0.00 in
10:40 91.0 °F 56.2 °F 29.83 in SE 5.0 mph 5.0 mph 31 % 0.00 in
10:41 90.9 °F 55.2 °F 29.83 in SE 4.6 mph 4.6 mph 30 % 0.00 in
10:46 90.9 °F 57.0 °F 29.83 in South 3.5 mph 3.5 mph 32 % 0.00 in
10:52 91.3 °F 57.3 °F 29.83 in SE 2.3 mph 2.3 mph 32 % 0.00 in
10:57 91.9 °F 58.7 °F 29.83 in SSE 3.5 mph 3.5 mph 33 % 0.00 in
11:02 92.0 °F 57.9 °F 29.83 in ESE 3.5 mph 3.5 mph 32 % 0.00 in
11:07 91.9 °F 57.8 °F 29.83 in South 1.2 mph 1.2 mph 32 % 0.00 in
11:12 91.8 °F 56.9 °F 29.83 in ESE 2.3 mph 2.3 mph 31 % 0.00 in
11:17 92.1 °F 54.3 °F 29.83 in SE 3.5 mph 3.5 mph 28 % 0.00 in
11:22 92.8 °F 58.6 °F 29.83 in NNE 1.2 mph 1.2 mph 32 % 0.00 in
11:27 93.4 °F 58.2 °F 29.83 in South 1.2 mph 1.2 mph 31 % 0.00 in
11:32 93.8 °F 57.7 °F 29.83 in SE 2.3 mph 2.3 mph 30 % 0.00 in
11:37 94.4 °F 58.2 °F 29.83 in SE 1.2 mph 1.2 mph 30 % 0.00 in
11:42 95.1 °F 56.9 °F 29.83 in WNW 2.3 mph 2.3 mph 28 % 0.00 in
11:47 95.6 °F 57.3 °F 29.83 in North 2.3 mph 2.3 mph 28 % 0.00 in
11:52 95.6 °F 58.3 °F 29.83 in ESE 1.2 mph 1.2 mph 29 % 0.00 in
11:57 95.6 °F 57.3 °F 29.83 in SW 2.3 mph 2.3 mph 28 % 0.00 in
12:02 95.6 °F 58.3 °F 29.83 in ESE 1.2 mph 1.2 mph 29 % 0.00 in
12:07 95.4 °F 57.1 °F 29.83 in NNE 1.2 mph 1.2 mph 28 % 0.00 in
12:12 95.1 °F 59.7 °F 29.83 in ESE 1.0 mph 1.0 mph 31 % 0.00 in
12:15 95.0 °F 57.8 °F 29.83 in SE 2.3 mph 2.3 mph 29 % 0.00 in
12:20 94.7 °F 58.4 °F 29.82 in NE 1.2 mph 1.2 mph 30 % 0.00 in
12:25 94.7 °F 60.3 °F 29.82 in Calm   0.2 mph 32 % 0.00 in
12:30 95.1 °F 58.8 °F 29.82 in WNW 3.5 mph 3.5 mph 30 % 0.00 in
12:35 95.6 °F 59.2 °F 29.82 in South 2.3 mph 2.3 mph 30 % 0.00 in
12:40 95.8 °F 61.2 °F 29.82 in ENE 2.3 mph 2.3 mph 32 % 0.00 in
12:45 96.1 °F 62.3 °F 29.82 in SSE 1.2 mph 1.2 mph 33 % 0.00 in
12:50 96.4 °F 63.5 °F 29.82 in ESE 1.2 mph 1.2 mph 34 % 0.00 in
12:55 96.3 °F 60.7 °F 29.82 in NNE 2.3 mph 2.3 mph 31 % 0.00 in
13:00 96.4 °F 59.9 °F 29.81 in WNW 1.2 mph 1.2 mph 30 % 0.00 in
13:05 96.8 °F 59.3 °F 29.81 in SE 2.3 mph 2.3 mph 29 % 0.00 in
13:11 97.0 °F 55.3 °F 29.81 in North 2.3 mph 2.3 mph 25 % 0.00 in
13:16 96.8 °F 59.3 °F 29.81 in SSW 1.2 mph 1.2 mph 29 % 0.00 in
13:21 97.7 °F 60.1 °F 29.81 in SSW 2.3 mph 2.3 mph 29 % 0.00 in
13:26 98.7 °F 61.9 °F 29.81 in SSE 2.3 mph 2.3 mph 30 % 0.00 in
13:31 99.1 °F 63.2 °F 29.81 in East 3.5 mph 3.5 mph 31 % 0.00 in
13:36 99.3 °F 59.4 °F 29.81 in SSE 2.3 mph 2.3 mph 27 % 0.00 in
13:41 99.3 °F 60.5 °F 29.81 in SE 1.2 mph 1.2 mph 28 % 0.00 in
13:46 99.9 °F 62.0 °F 29.81 in SSE 2.3 mph 2.3 mph 29 % 0.00 in
13:51 100.0 °F 59.0 °F 29.80 in NE 2.3 mph 2.3 mph 26 % 0.00 in
13:56 100.2 °F 56.9 °F 29.80 in WNW 2.3 mph 2.3 mph 24 % 0.00 in
14:01 100.3 °F 59.2 °F 29.80 in West 1.2 mph 1.2 mph 26 % 0.00 in
14:06 100.6 °F 57.2 °F 29.80 in NE 1.0 mph 1.0 mph 24 % 0.00 in
14:11 100.2 °F 59.1 °F 29.80 in NNE 1.2 mph 1.2 mph 26 % 0.00 in
14:16 100.0 °F 57.9 °F 29.80 in ESE 3.5 mph 3.5 mph 25 % 0.00 in
14:21 100.0 °F 56.7 °F 29.79 in West 3.5 mph 3.5 mph 24 % 0.00 in
14:26 100.2 °F 55.7 °F 29.79 in NNW 1.2 mph 1.2 mph 23 % 0.00 in
14:31 99.8 °F 54.2 °F 29.79 in NE 3.5 mph 3.5 mph 22 % 0.00 in
14:36 100.0 °F 54.3 °F 29.79 in NW 2.3 mph 2.3 mph 22 % 0.00 in
14:41 100.5 °F 53.5 °F 29.78 in ENE 4.0 mph 4.0 mph 21 % 0.00 in
14:46 101.2 °F 52.7 °F 29.78 in North 2.3 mph 2.3 mph 20 % 0.00 in
14:51 101.5 °F 55.6 °F 29.78 in North 2.0 mph 2.0 mph 22 % 0.00 in
14:56 101.3 °F 56.6 °F 29.78 in NNW 3.5 mph 3.5 mph 23 % 0.00 in
15:01 100.7 °F 57.3 °F 29.77 in NNW 3.5 mph 3.5 mph 24 % 0.00 in
15:06 100.1 °F 56.8 °F 29.77 in ESE 2.3 mph 2.3 mph 24 % 0.00 in
15:12 100.2 °F 55.7 °F 29.77 in ENE 3.5 mph 3.5 mph 23 % 0.00 in
15:17 100.4 °F 55.9 °F 29.77 in West 2.0 mph 2.0 mph 23 % 0.00 in
15:22 101.0 °F 57.6 °F 29.77 in NW 2.0 mph 2.0 mph 24 % 0.00 in
15:27 101.3 °F 57.8 °F 29.76 in NW 3.5 mph 3.5 mph 24 % 0.00 in
15:32 101.3 °F 56.6 °F 29.76 in NW 2.3 mph 2.3 mph 23 % 0.00 in
15:37 101.2 °F 55.3 °F 29.76 in NW 2.3 mph 2.3 mph 22 % 0.00 in
15:42 101.3 °F 59.0 °F 29.76 in NW 1.2 mph 1.2 mph 25 % 0.00 in
15:47 101.9 °F 57.1 °F 29.76 in NNW 3.5 mph 3.5 mph 23 % 0.00 in
15:52 102.0 °F 54.7 °F 29.76 in WSW 2.3 mph 2.3 mph 21 % 0.00 in
15:57 102.4 °F 56.3 °F 29.75 in WSW 1.2 mph 1.2 mph 22 % 0.00 in
16:02 102.6 °F 52.5 °F 29.75 in East 3.5 mph 3.5 mph 19 % 0.00 in
16:07 102.6 °F 53.9 °F 29.75 in North 2.3 mph 2.3 mph 20 % 0.00 in
16:12 102.7 °F 53.9 °F 29.75 in ESE 1.2 mph 1.2 mph 20 % 0.00 in
16:17 102.8 °F 52.6 °F 29.75 in NW 3.5 mph 3.5 mph 19 % 0.00 in
16:22 102.4 °F 53.7 °F 29.75 in NW 2.3 mph 2.3 mph 20 % 0.00 in
16:27 102.6 °F 53.9 °F 29.75 in West 3.5 mph 3.5 mph 20 % 0.00 in
16:32 103.1 °F 52.9 °F 29.75 in NW 2.3 mph 2.3 mph 19 % 0.00 in
16:37 103.2 °F 52.9 °F 29.74 in NNW 3.5 mph 3.5 mph 19 % 0.00 in
16:42 103.0 °F 55.5 °F 29.74 in West 2.3 mph 2.3 mph 21 % 0.00 in
16:47 103.0 °F 54.2 °F 29.74 in NW 2.3 mph 2.3 mph 20 % 0.00 in
16:52 102.9 °F 55.4 °F 29.74 in NW 1.2 mph 1.2 mph 21 % 0.00 in
16:57 103.1 °F 52.9 °F 29.74 in WSW 2.3 mph 2.3 mph 19 % 0.00 in
17:02 103.2 °F 52.9 °F 29.74 in North 1.2 mph 1.2 mph 19 % 0.00 in
17:07 103.4 °F 54.5 °F 29.74 in NNW 3.5 mph 3.5 mph 20 % 0.00 in
17:12 103.2 °F 54.4 °F 29.74 in NW 1.2 mph 1.2 mph 20 % 0.00 in
17:17 103.0 °F 55.5 °F 29.74 in NNW 2.3 mph 2.3 mph 21 % 0.00 in
17:22 103.0 °F 55.5 °F 29.73 in Calm   0.2 mph 21 % 0.00 in
17:27 103.2 °F 57.0 °F 29.73 in WSW 2.3 mph 2.3 mph 22 % 0.00 in
17:32 103.5 °F 57.2 °F 29.73 in WNW 1.2 mph   22 % 0.00 in
17:37 103.8 °F 56.2 °F 29.73 in NNW 1.2 mph 1.2 mph 21 % 0.00 in
17:42 103.6 °F 54.7 °F 29.73 in WNW 1.2 mph 1.2 mph 20 % 0.00 in
17:47 103.2 °F 55.7 °F 29.73 in West 1.2 mph   21 % 0.00 in
17:52 102.8 °F 55.4 °F 29.73 in NW 1.2 mph 1.2 mph 21 % 0.00 in
17:57 102.3 °F 55.0 °F 29.73 in NW 1.2 mph 1.2 mph 21 % 0.00 in
18:02 102.2 °F 56.2 °F 29.73 in West 1.2 mph   22 % 0.00 in
18:07 102.2 °F 54.9 °F 29.73 in NW 2.3 mph 2.3 mph 21 % 0.00 in
18:12 101.9 °F 58.3 °F 29.73 in NW 1.2 mph   24 % 0.00 in
18:17 101.9 °F 59.5 °F 29.73 in Calm     25 % 0.00 in
18:22 101.9 °F 57.1 °F 29.73 in NW 1.2 mph 1.2 mph 23 % 0.00 in
18:27 101.6 °F 60.3 °F 29.72 in Calm     26 % 0.00 in
18:32 101.5 °F 61.3 °F 29.72 in Calm     27 % 0.00 in
18:37 101.1 °F 62.0 °F 29.72 in NW 1.0 mph 1.0 mph 28 % 0.00 in
18:42 100.5 °F 65.3 °F 29.72 in West 1.2 mph 1.2 mph 32 % 0.00 in
18:47 100.0 °F 66.6 °F 29.73 in West 1.2 mph   34 % 0.00 in
18:52 99.9 °F 64.8 °F 29.73 in Calm     32 % 0.00 in
18:57 99.8 °F 65.6 °F 29.73 in West 1.2 mph   33 % 0.00 in
19:03 99.4 °F 60.5 °F 29.73 in Calm   0.1 mph 28 % 0.00 in
19:08 98.9 °F 61.1 °F 29.73 in Calm     29 % 0.00 in
19:13 98.4 °F 65.2 °F 29.73 in Calm     34 % 0.00 in
19:18 97.8 °F 64.7 °F 29.73 in Calm     34 % 0.00 in
19:23 96.9 °F 64.7 °F 29.73 in West 1.2 mph 1.2 mph 35 % 0.00 in
19:28 96.1 °F 64.8 °F 29.73 in Calm     36 % 0.00 in
19:33 95.6 °F 61.9 °F 29.73 in Calm     33 % 0.00 in
19:38 95.4 °F 62.6 °F 29.73 in Calm     34 % 0.00 in
19:43 94.9 °F 65.3 °F 29.73 in Calm     38 % 0.00 in
19:48 94.3 °F 68.4 °F 29.73 in Calm     43 % 0.00 in
19:53 93.4 °F 67.6 °F 29.73 in Calm     43 % 0.00 in
19:58 92.6 °F 68.2 °F 29.73 in Calm     45 % 0.00 in
20:03 91.8 °F 67.4 °F 29.74 in Calm     45 % 0.00 in
20:08 91.2 °F 67.5 °F 29.74 in Calm     46 % 0.00 in
20:13 90.6 °F 67.6 °F 29.74 in Calm     47 % 0.00 in
20:18 90.0 °F 67.7 °F 29.74 in Calm     48 % 0.00 in
20:23 89.5 °F 67.8 °F 29.74 in Calm     49 % 0.00 in
20:28 89.1 °F 68.0 °F 29.74 in Calm     50 % 0.00 in
20:33 88.5 °F 68.1 °F 29.74 in Calm     51 % 0.00 in
20:38 88.1 °F 68.3 °F 29.75 in Calm     52 % 0.00 in
20:43 87.7 °F 67.9 °F 29.75 in Calm     52 % 0.00 in
20:48 87.4 °F 67.6 °F 29.75 in Calm     52 % 0.00 in
20:53 87.0 °F 67.8 °F 29.75 in Calm     53 % 0.00 in
20:58 86.6 °F 66.9 °F 29.75 in Calm     52 % 0.00 in
21:03 86.2 °F 67.6 °F 29.75 in Calm     54 % 0.00 in
21:08 85.9 °F 67.9 °F 29.75 in Calm     55 % 0.00 in
21:13 85.7 °F 67.1 °F 29.75 in Calm     54 % 0.00 in
21:18 85.8 °F 67.2 °F 29.75 in Calm     54 % 0.00 in
21:23 85.6 °F 67.0 °F 29.76 in Calm     54 % 0.00 in
21:28 85.4 °F 66.9 °F 29.76 in Calm     54 % 0.00 in
21:33 85.2 °F 67.2 °F 29.76 in Calm     55 % 0.00 in
21:38 84.9 °F 66.4 °F 29.76 in Calm     54 % 0.00 in
21:43 84.7 °F 68.3 °F 29.76 in Calm     58 % 0.00 in
21:48 84.2 °F 68.3 °F 29.76 in Calm     59 % 0.00 in
21:53 83.8 °F 68.4 °F 29.76 in Calm     60 % 0.00 in
21:58 83.5 °F 68.2 °F 29.76 in Calm     60 % 0.00 in
22:03 83.3 °F 67.5 °F 29.76 in Calm     59 % 0.00 in
22:09 83.5 °F 67.7 °F 29.77 in Calm     59 % 0.00 in
22:14 83.3 °F 67.0 °F 29.77 in Calm     58 % 0.00 in
22:19 83.1 °F 67.3 °F 29.77 in Calm     59 % 0.00 in
22:24 82.8 °F 68.0 °F 29.77 in Calm     61 % 0.00 in
22:29 82.5 °F 67.7 °F 29.77 in Calm     61 % 0.00 in
22:34 82.3 °F 67.5 °F 29.77 in Calm     61 % 0.00 in
22:39 82.1 °F 67.3 °F 29.77 in Calm     61 % 0.00 in
22:44 81.8 °F 67.5 °F 29.77 in Calm     62 % 0.00 in
22:49 81.7 °F 67.4 °F 29.77 in SE 1.2 mph 1.2 mph 62 % 0.00 in
22:54 81.9 °F 67.1 °F 29.77 in SE 1.2 mph   61 % 0.00 in
22:59 81.2 °F 66.9 °F 29.78 in Calm     62 % 0.00 in
23:04 80.4 °F 65.7 °F 29.77 in Calm     61 % 0.00 in
23:09 80.2 °F 66.0 °F 29.77 in Calm     62 % 0.00 in
23:14 80.1 °F 67.3 °F 29.77 in Calm     65 % 0.00 in
23:19 79.9 °F 66.2 °F 29.77 in Calm     63 % 0.00 in
23:24 79.5 °F 66.7 °F 29.78 in Calm     65 % 0.00 in
23:29 79.0 °F 64.4 °F 29.78 in Calm     61 % 0.00 in
23:34 78.8 °F 63.7 °F 29.78 in Calm     60 % 0.00 in
23:39 78.9 °F 64.8 °F 29.78 in Calm     62 % 0.00 in
23:44 79.0 °F 65.3 °F 29.77 in Calm     63 % 0.00 in
23:49 79.0 °F 64.9 °F 29.78 in Calm     62 % 0.00 in
23:54 79.0 °F 64.9 °F 29.78 in Calm     62 % 0.00 in
23:59 79.0 °F 65.3 °F 29.78 in Calm     63 % 0.00 in
Park Place, Exeter, Tulare County, California, USA
Compliments of Weather Underground - 2.75 mb